Time;durP1;ratioP1;P1;durP2;ratioP2;P2;SDS_P1;SDS_P2;PMS_P1;PMS_P2;Temp;Humidity;BMP_temperature;BMP_pressure;BME280_temperature;BME280_humidity;BME280_pressure;Samples;Min_cycle;Max_cycle;Signal;HPM_P1;HPM_P2
2022/11/08 00:16:07;;;;;;;7.13;4.30;;;;;;;;;;10364897;28;20394;-60
2022/11/08 00:21:07;;;;;;;16.20;4.17;;;;;;;;;;10365058;28;20018;-59
2022/11/08 00:26:07;;;;;;;7.30;4.40;;;;;;;;;;10364919;28;20128;-58
2022/11/08 00:31:07;;;;;;;8.25;4.40;;;;;;;;;;10366118;28;20045;-56
2022/11/08 00:36:08;;;;;;;7.80;4.30;;;;;;;;;;10372732;28;20026;-60
2022/11/08 00:41:09;;;;;;;7.33;4.43;;;;;;;;;;10369870;28;20034;-61
2022/11/08 00:46:09;;;;;;;8.82;4.60;;;;;;;;;;10372536;28;20467;-58
2022/11/08 00:51:10;;;;;;;8.32;4.15;;;;;;;;;;10364130;28;20048;-61
2022/11/08 00:56:11;;;;;;;6.95;4.00;;;;;;;;;;10368855;28;20125;-60
2022/11/08 01:01:13;;;;;;;8.13;4.10;;;;;;;;;;10371729;28;20048;-61
2022/11/08 01:06:15;;;;;;;5.40;3.95;;;;;;;;;;10372324;28;20117;-58
2022/11/08 01:11:17;;;;;;;6.22;3.70;;;;;;;;;;10370281;28;20481;-61
2022/11/08 01:16:18;;;;;;;8.25;3.88;;;;;;;;;;10370786;28;20409;-61
2022/11/08 01:21:19;;;;;;;10.13;3.67;;;;;;;;;;10370764;28;20028;-60
2022/11/08 01:26:20;;;;;;;5.40;3.92;;;;;;;;;;10371620;28;20026;-58
2022/11/08 01:31:22;;;;;;;5.57;4.18;;;;;;;;;;10370532;28;20052;-59
2022/11/08 01:36:24;;;;;;;5.50;3.92;;;;;;;;;;10370556;28;20084;-58
2022/11/08 01:41:25;;;;;;;7.10;4.65;;;;;;;;;;10369559;28;20344;-59
2022/11/08 01:46:30;;;;;;;6.70;4.63;;;;;;;;;;10369552;28;20026;-60
2022/11/08 01:51:33;;;;;;;5.15;3.53;;;;;;;;;;10364727;28;20038;-60
2022/11/08 01:56:34;;;;;;;7.80;4.00;;;;;;;;;;10368215;28;20041;-58
2022/11/08 02:01:35;;;;;;;5.40;3.65;;;;;;;;;;10369808;28;20033;-59
2022/11/08 02:06:37;;;;;;;5.50;3.75;;;;;;;;;;10368693;28;20470;-58
2022/11/08 02:11:38;;;;;;;6.88;3.72;;;;;;;;;;10368887;28;20041;-56
2022/11/08 02:16:38;;;;;;;5.18;3.63;;;;;;;;;;10368232;28;20061;-56
2022/11/08 02:21:46;;;;;;;5.28;3.78;;;;;;;;;;10368598;28;20184;-56
2022/11/08 02:26:48;;;;;;;8.18;4.10;;;;;;;;;;10364393;28;20026;-58
2022/11/08 02:31:49;;;;;;;4.93;3.30;;;;;;;;;;10368146;28;20045;-59
2022/11/08 02:36:49;;;;;;;5.30;3.63;;;;;;;;;;10367764;28;20026;-60
2022/11/08 02:41:50;;;;;;;5.20;3.80;;;;;;;;;;10368218;28;20036;-54
2022/11/08 02:46:50;;;;;;;6.93;3.65;;;;;;;;;;10367040;28;20033;-59
2022/11/08 02:51:51;;;;;;;8.50;3.83;;;;;;;;;;10367818;28;20036;-60
2022/11/08 02:56:51;;;;;;;6.65;4.10;;;;;;;;;;10366212;28;20088;-61
2022/11/08 03:01:51;;;;;;;4.90;3.63;;;;;;;;;;10366419;28;20026;-58
2022/11/08 03:06:51;;;;;;;5.28;3.92;;;;;;;;;;10363839;28;20030;-58
2022/11/08 03:11:52;;;;;;;4.30;3.35;;;;;;;;;;10366997;28;20034;-61
2022/11/08 03:16:52;;;;;;;7.72;3.45;;;;;;;;;;10366937;28;20029;-60
2022/11/08 03:21:52;;;;;;;4.32;3.50;;;;;;;;;;10366448;28;20033;-61
2022/11/08 03:26:53;;;;;;;5.07;3.25;;;;;;;;;;10366590;28;20124;-60
2022/11/08 03:31:53;;;;;;;4.72;3.38;;;;;;;;;;10356785;28;20065;-58
2022/11/08 03:36:53;;;;;;;7.90;3.80;;;;;;;;;;10365352;28;20044;-55
2022/11/08 03:41:53;;;;;;;5.35;3.67;;;;;;;;;;10364523;28;20559;-58
2022/11/08 03:46:55;;;;;;;6.47;4.10;;;;;;;;;;10366702;28;20045;-59
2022/11/08 03:51:55;;;;;;;6.07;3.40;;;;;;;;;;10364577;28;20033;-60
2022/11/08 03:56:55;;;;;;;5.15;3.67;;;;;;;;;;10364946;28;20468;-60
2022/11/08 04:01:56;;;;;;;5.28;3.33;;;;;;;;;;10365510;28;20042;-59
2022/11/08 04:06:56;;;;;;;5.78;3.30;;;;;;;;;;10364030;28;20052;-59
2022/11/08 04:17:15;;;;;;;4.93;3.67;;;;;;;;;;10354516;28;20120;-58
2022/11/08 04:22:15;;;;;;;5.13;3.63;;;;;;;;;;10362513;28;20397;-60
2022/11/08 04:27:16;;;;;;;3.88;3.47;;;;;;;;;;10364469;28;20041;-59
2022/11/08 04:32:16;;;;;;;4.18;3.38;;;;;;;;;;10365344;28;20112;-56
2022/11/08 04:37:16;;;;;;;5.03;3.78;;;;;;;;;;10364731;28;20528;-59
2022/11/08 04:42:16;;;;;;;5.22;3.35;;;;;;;;;;10365076;28;20045;-57
2022/11/08 04:47:17;;;;;;;4.45;3.42;;;;;;;;;;10363665;28;20030;-60
2022/11/08 04:52:17;;;;;;;5.20;3.67;;;;;;;;;;10356477;28;20033;-60
2022/11/08 04:57:17;;;;;;;4.40;3.10;;;;;;;;;;10362838;28;20030;-59
2022/11/08 05:02:17;;;;;;;5.07;3.20;;;;;;;;;;10363462;28;20030;-60
2022/11/08 05:07:19;;;;;;;3.75;3.35;;;;;;;;;;10352730;28;20033;-60
2022/11/08 05:12:19;;;;;;;5.75;3.25;;;;;;;;;;10363710;28;20038;-60
2022/11/08 05:17:19;;;;;;;4.70;3.28;;;;;;;;;;10366606;28;20038;-61
2022/11/08 05:27:38;;;;;;;5.00;3.53;;;;;;;;;;10362031;28;20112;-60
2022/11/08 05:32:38;;;;;;;6.10;3.08;;;;;;;;;;10370015;28;20054;-58
2022/11/08 05:37:40;;;;;;;4.03;3.47;;;;;;;;;;10370929;28;20037;-59
2022/11/08 05:42:40;;;;;;;4.28;3.25;;;;;;;;;;10370752;28;20057;-60
2022/11/08 05:47:44;;;;;;;4.18;3.45;;;;;;;;;;10371096;28;20057;-58
2022/11/08 05:52:44;;;;;;;5.15;3.22;;;;;;;;;;10361941;28;20099;-57
2022/11/08 05:57:45;;;;;;;5.03;3.30;;;;;;;;;;10370029;28;20084;-57
2022/11/08 06:02:45;;;;;;;4.70;3.53;;;;;;;;;;10367018;28;20037;-59
2022/11/08 06:07:45;;;;;;;5.05;3.42;;;;;;;;;;10368832;28;20113;-60
2022/11/08 06:12:46;;;;;;;4.90;3.42;;;;;;;;;;10367462;28;20564;-58
2022/11/08 06:17:46;;;;;;;4.28;3.30;;;;;;;;;;10364769;28;20394;-50
2022/11/08 06:22:46;;;;;;;8.85;3.90;;;;;;;;;;10358878;28;20109;-59
2022/11/08 06:27:46;;;;;;;7.20;3.83;;;;;;;;;;10368343;28;20033;-59
2022/11/08 06:32:47;;;;;;;6.88;4.40;;;;;;;;;;10365830;28;20404;-60
2022/11/08 06:37:47;;;;;;;12.85;3.80;;;;;;;;;;10368485;28;20103;-59
2022/11/08 06:42:47;;;;;;;14.30;4.63;;;;;;;;;;10366076;28;20458;-62
2022/11/08 06:47:48;;;;;;;6.80;4.47;;;;;;;;;;10363540;28;20025;-60
2022/11/08 06:52:54;;;;;;;6.20;4.68;;;;;;;;;;10358139;28;20413;-56
2022/11/08 06:57:54;;;;;;;12.82;4.60;;;;;;;;;;10362951;28;20393;-56
2022/11/08 07:02:56;;;;;;;6.63;4.20;;;;;;;;;;10362158;28;21000;-60
2022/11/08 07:07:56;;;;;;;10.85;4.80;;;;;;;;;;10366857;28;20461;-63
2022/11/08 07:13:04;;;;;;;11.05;4.70;;;;;;;;;;10365374;28;20363;-59
2022/11/08 07:18:06;;;;;;;7.60;4.70;;;;;;;;;;10364128;28;20088;-60
2022/11/08 07:23:07;;;;;;;5.32;4.50;;;;;;;;;;10365137;28;20037;-61
2022/11/08 07:28:14;;;;;;;8.82;4.82;;;;;;;;;;10365194;28;20114;-63
2022/11/08 07:33:15;;;;;;;9.40;4.28;;;;;;;;;;10365495;28;20057;-60
2022/11/08 07:38:15;;;;;;;8.27;4.57;;;;;;;;;;10365518;28;20107;-63
2022/11/08 07:43:15;;;;;;;9.23;4.20;;;;;;;;;;10365762;28;20161;-60
2022/11/08 07:48:16;;;;;;;9.32;4.45;;;;;;;;;;10365599;28;20899;-61
2022/11/08 07:53:16;;;;;;;10.75;4.60;;;;;;;;;;10365246;28;20025;-60
2022/11/08 07:58:16;;;;;;;9.07;4.47;;;;;;;;;;10363680;28;20385;-59
2022/11/08 08:03:17;;;;;;;10.68;5.25;;;;;;;;;;10363131;28;20026;-60
2022/11/08 08:08:17;;;;;;;7.43;4.77;;;;;;;;;;10365261;28;20041;-60
2022/11/08 08:13:18;;;;;;;6.43;4.15;;;;;;;;;;10364504;28;20409;-59
2022/11/08 08:18:20;;;;;;;7.87;4.10;;;;;;;;;;10365066;28;20111;-58
2022/11/08 08:23:20;;;;;;;9.13;4.53;;;;;;;;;;10364779;28;20034;-60
2022/11/08 08:28:21;;;;;;;8.07;4.60;;;;;;;;;;10365472;28;20022;-60
2022/11/08 08:33:21;;;;;;;5.50;3.75;;;;;;;;;;10364388;28;20104;-57
2022/11/08 08:38:21;;;;;;;5.38;4.22;;;;;;;;;;10364556;28;20467;-59
2022/11/08 08:43:21;;;;;;;7.95;4.50;;;;;;;;;;10365108;28;20033;-61
2022/11/08 08:48:22;;;;;;;7.18;4.05;;;;;;;;;;10360992;28;20017;-60
2022/11/08 08:53:22;;;;;;;6.00;4.20;;;;;;;;;;10367676;28;20398;-61
2022/11/08 08:58:23;;;;;;;6.43;3.73;;;;;;;;;;10369276;28;20388;-61
2022/11/08 09:03:23;;;;;;;8.95;4.38;;;;;;;;;;10370102;28;20657;-59
2022/11/08 09:08:23;;;;;;;5.13;4.30;;;;;;;;;;10368958;28;20503;-61
2022/11/08 09:13:25;;;;;;;5.15;3.65;;;;;;;;;;10372216;28;20469;-60
2022/11/08 09:18:25;;;;;;;6.22;3.97;;;;;;;;;;10372035;28;20029;-61
2022/11/08 09:23:25;;;;;;;7.00;3.92;;;;;;;;;;10371519;28;20452;-58
2022/11/08 09:28:28;;;;;;;5.55;4.00;;;;;;;;;;10369758;28;20032;-55
2022/11/08 09:33:28;;;;;;;4.20;3.55;;;;;;;;;;10370637;28;20069;-58
2022/11/08 09:38:29;;;;;;;4.00;3.50;;;;;;;;;;10368033;28;20113;-60
2022/11/08 09:43:29;;;;;;;6.28;3.63;;;;;;;;;;10370684;28;20034;-59
2022/11/08 09:48:29;;;;;;;6.93;3.40;;;;;;;;;;10370682;28;20075;-57
2022/11/08 09:53:43;;;;;;;6.80;4.38;;;;;;;;;;10369230;28;20034;-58
2022/11/08 09:58:44;;;;;;;7.45;3.80;;;;;;;;;;10368096;28;20079;-59
2022/11/08 10:03:46;;;;;;;5.80;3.55;;;;;;;;;;10369280;28;20370;-52
2022/11/08 10:08:46;;;;;;;5.90;3.40;;;;;;;;;;10368530;28;20033;-59
2022/11/08 10:14:10;;;;;;;5.72;3.83;;;;;;;;;;10369212;28;20025;-60
2022/11/08 10:19:16;;;;;;;4.70;3.65;;;;;;;;;;10356135;28;20029;-60
2022/11/08 10:24:22;;;;;;;5.93;3.17;;;;;;;;;;10369807;28;20010;-57
2022/11/08 10:29:49;;;;;;;4.72;3.60;;;;;;;;;;10369139;28;20046;-60
2022/11/08 10:35:01;;;;;;;4.05;3.45;;;;;;;;;;10365496;28;20120;-60
2022/11/08 10:40:14;;;;;;;4.55;3.05;;;;;;;;;;10367559;28;20117;-60
2022/11/08 10:45:14;;;;;;;8.50;3.30;;;;;;;;;;10368129;28;20084;-59
2022/11/08 10:50:17;;;;;;;3.80;3.40;;;;;;;;;;10367677;28;20430;-60
2022/11/08 10:55:25;;;;;;;4.05;3.65;;;;;;;;;;10366836;28;20054;-60
2022/11/08 11:00:30;;;;;;;4.90;3.40;;;;;;;;;;10366646;28;20053;-60
2022/11/08 11:05:30;;;;;;;4.80;3.60;;;;;;;;;;10367348;28;20486;-61
2022/11/08 11:10:35;;;;;;;4.80;3.03;;;;;;;;;;10366415;28;20022;-60
2022/11/08 11:15:39;;;;;;;4.32;3.45;;;;;;;;;;10365968;28;20030;-61
2022/11/08 11:20:39;;;;;;;4.10;3.22;;;;;;;;;;10366022;28;20433;-58
2022/11/08 11:25:48;;;;;;;4.47;3.30;;;;;;;;;;10365784;28;20096;-60
2022/11/08 11:30:58;;;;;;;5.50;3.05;;;;;;;;;;10366109;28;20118;-60
2022/11/08 11:35:58;;;;;;;3.95;3.05;;;;;;;;;;10366804;28;20033;-58
2022/11/08 11:41:03;;;;;;;4.22;3.00;;;;;;;;;;10365434;28;20394;-60
2022/11/08 11:46:16;;;;;;;4.10;3.10;;;;;;;;;;10366537;28;20486;-57
2022/11/08 11:51:16;;;;;;;4.22;3.40;;;;;;;;;;10366246;28;20208;-58
2022/11/08 11:56:32;;;;;;;4.53;2.97;;;;;;;;;;10365677;28;20225;-59
2022/11/08 12:01:47;;;;;;;3.92;3.25;;;;;;;;;;10365343;28;20505;-59
2022/11/08 12:06:47;;;;;;;8.68;2.90;;;;;;;;;;10366102;28;20022;-59
2022/11/08 12:11:47;;;;;;;3.85;3.15;;;;;;;;;;10365892;28;20037;-60
2022/11/08 12:17:06;;;;;;;5.35;2.90;;;;;;;;;;10366160;28;20030;-59
2022/11/08 12:22:29;;;;;;;3.92;2.90;;;;;;;;;;10353062;28;20503;-56
2022/11/08 12:27:32;;;;;;;4.35;3.00;;;;;;;;;;10357875;28;20478;-60
2022/11/08 12:32:38;;;;;;;3.83;2.97;;;;;;;;;;10372989;28;20049;-59
2022/11/08 12:37:57;;;;;;;3.95;2.50;;;;;;;;;;10372831;28;20490;-59
2022/11/08 12:43:09;;;;;;;3.88;3.00;;;;;;;;;;10371890;28;20040;-60
2022/11/08 12:48:19;;;;;;;4.63;3.00;;;;;;;;;;10371753;28;20114;-58
2022/11/08 12:53:22;;;;;;;3.40;2.65;;;;;;;;;;10371814;28;20045;-60
2022/11/08 12:58:28;;;;;;;5.25;2.97;;;;;;;;;;10370326;28;20022;-60
2022/11/08 13:03:41;;;;;;;4.57;3.25;;;;;;;;;;10372156;28;20112;-60
2022/11/08 13:09:00;;;;;;;5.35;2.90;;;;;;;;;;10371199;28;20026;-61
2022/11/08 13:14:00;;;;;;;;;;;;;;;;;;10372293;28;20481;-59
2022/11/08 13:19:04;;;;;;;4.05;2.80;;;;;;;;;;10358289;28;19918;-60
2022/11/08 13:24:04;;;;;;;3.00;2.22;;;;;;;;;;10371582;28;20058;-59
2022/11/08 13:29:17;;;;;;;10.13;2.95;;;;;;;;;;10370459;28;20512;-59
2022/11/08 13:34:23;;;;;;;6.32;3.10;;;;;;;;;;10361156;28;20034;-57
2022/11/08 13:39:35;;;;;;;3.33;2.55;;;;;;;;;;10368119;28;20022;-60
2022/11/08 13:44:54;;;;;;;5.38;2.72;;;;;;;;;;10354110;28;20038;-58
2022/11/08 13:50:14;;;;;;;9.48;2.70;;;;;;;;;;10368425;28;20041;-53
2022/11/08 13:55:33;;;;;;;2.83;2.50;;;;;;;;;;10368685;28;20041;-60
2022/11/08 14:00:44;;;;;;;3.45;2.85;;;;;;;;;;10367881;28;20038;-59
2022/11/08 14:05:47;;;;;;;4.18;3.05;;;;;;;;;;10368448;28;20108;-57
2022/11/08 14:11:19;;;;;;;3.47;2.80;;;;;;;;;;10369804;28;20030;-56
2022/11/08 14:16:22;;;;;;;5.97;2.92;;;;;;;;;;10326256;28;20124;-49
2022/11/08 14:21:22;;;;;;;8.55;3.13;;;;;;;;;;10369066;28;20042;-52
2022/11/08 14:26:24;;;;;;;9.68;2.97;;;;;;;;;;10369612;28;20030;-56
2022/11/08 14:31:26;;;;;;;4.47;2.55;;;;;;;;;;10367001;28;20057;-52
2022/11/08 14:36:28;;;;;;;4.50;2.50;;;;;;;;;;10366905;28;20064;-50
2022/11/08 14:41:28;;;;;;;3.60;2.58;;;;;;;;;;10366221;28;20029;-53
2022/11/08 14:46:32;;;;;;;3.97;2.60;;;;;;;;;;10364261;28;20026;-52
2022/11/08 14:51:32;;;;;;;4.97;2.50;;;;;;;;;;10367187;28;20044;-52
2022/11/08 14:56:36;;;;;;;4.15;2.70;;;;;;;;;;10368076;28;20036;-52
2022/11/08 15:01:37;;;;;;;4.05;2.75;;;;;;;;;;10367608;28;20034;-59
2022/11/08 15:06:45;;;;;;;3.47;2.50;;;;;;;;;;10368297;28;20026;-56
2022/11/08 15:11:51;;;;;;;3.58;2.63;;;;;;;;;;10367477;28;20034;-53
2022/11/08 15:16:53;;;;;;;3.33;2.42;;;;;;;;;;10367780;28;20446;-60
2022/11/08 15:21:53;;;;;;;3.90;2.25;;;;;;;;;;10366996;28;20056;-54
2022/11/08 15:27:00;;;;;;;4.72;2.40;;;;;;;;;;10366313;28;20064;-52
2022/11/08 15:32:00;;;;;;;4.90;2.75;;;;;;;;;;10354448;28;20053;-58
2022/11/08 15:37:01;;;;;;;4.35;2.67;;;;;;;;;;10365678;28;20033;-56
2022/11/08 15:42:02;;;;;;;4.60;2.25;;;;;;;;;;10367148;28;20057;-57
2022/11/08 15:47:03;;;;;;;5.40;2.45;;;;;;;;;;10366007;28;20100;-55
2022/11/08 15:52:04;;;;;;;5.07;2.45;;;;;;;;;;10366526;28;20092;-57
2022/11/08 15:57:04;;;;;;;3.15;2.50;;;;;;;;;;10364795;28;20339;-59
2022/11/08 16:02:11;;;;;;;2.50;2.27;;;;;;;;;;10365755;28;20022;-56
2022/11/08 16:07:11;;;;;;;3.90;2.30;;;;;;;;;;10364983;28;20028;-59
2022/11/08 16:12:13;;;;;;;3.17;2.50;;;;;;;;;;10365051;28;20381;-54
2022/11/08 16:17:13;;;;;;;2.53;2.28;;;;;;;;;;10366040;28;20053;-58
2022/11/08 16:22:14;;;;;;;3.75;2.47;;;;;;;;;;10365021;28;20414;-59
2022/11/08 16:27:14;;;;;;;5.67;2.43;;;;;;;;;;10366001;28;20430;-58
2022/11/08 16:32:14;;;;;;;3.78;2.40;;;;;;;;;;10364869;28;20483;-59
2022/11/08 16:37:15;;;;;;;3.03;2.58;;;;;;;;;;10364713;28;20044;-59
2022/11/08 16:42:15;;;;;;;5.32;2.72;;;;;;;;;;10365917;28;20413;-55
2022/11/08 16:47:17;;;;;;;7.10;2.80;;;;;;;;;;10365098;28;20037;-59
2022/11/08 16:52:17;;;;;;;4.63;2.38;;;;;;;;;;10365409;28;20034;-60
2022/11/08 16:57:17;;;;;;;3.50;2.47;;;;;;;;;;10363434;28;20083;-59
2022/11/08 17:02:20;;;;;;;7.32;2.47;;;;;;;;;;10363959;28;20045;-59
2022/11/08 17:07:20;;;;;;;3.40;2.78;;;;;;;;;;10364800;28;20030;-58
2022/11/08 17:12:20;;;;;;;4.60;2.95;;;;;;;;;;10365674;28;20026;-59
2022/11/08 17:17:21;;;;;;;4.70;3.10;;;;;;;;;;10368827;28;20659;-58
2022/11/08 17:22:21;;;;;;;4.50;2.97;;;;;;;;;;10361111;28;20030;-50
2022/11/08 17:27:21;;;;;;;4.15;3.05;;;;;;;;;;10368251;28;20481;-57
2022/11/08 17:32:21;;;;;;;6.68;3.30;;;;;;;;;;10362138;28;20408;-56
2022/11/08 17:37:22;;;;;;;4.18;3.42;;;;;;;;;;10369857;28;20164;-54
2022/11/08 17:42:23;;;;;;;6.22;3.10;;;;;;;;;;10367592;28;20153;-58
2022/11/08 17:47:24;;;;;;;6.35;3.25;;;;;;;;;;10370244;28;20026;-53
2022/11/08 17:52:24;;;;;;;6.03;3.97;;;;;;;;;;10365572;28;20030;-58
2022/11/08 17:57:24;;;;;;;8.95;4.32;;;;;;;;;;10357281;28;20034;-57
2022/11/08 18:02:26;;;;;;;5.93;4.30;;;;;;;;;;10366231;28;20029;-58
2022/11/08 18:07:26;;;;;;;6.57;4.03;;;;;;;;;;10364504;28;20124;-59
2022/11/08 18:12:26;;;;;;;10.15;4.70;;;;;;;;;;10369724;28;20367;-61
2022/11/08 18:17:26;;;;;;;12.02;5.22;;;;;;;;;;10368833;28;20409;-58
2022/11/08 18:22:27;;;;;;;15.50;5.13;;;;;;;;;;10369097;28;20038;-60
2022/11/08 18:27:27;;;;;;;8.32;5.18;;;;;;;;;;10363103;28;20033;-58
2022/11/08 18:32:27;;;;;;;14.68;5.35;;;;;;;;;;10367288;28;20038;-59
2022/11/08 18:37:28;;;;;;;9.23;5.15;;;;;;;;;;10367032;28;20021;-62
2022/11/08 18:42:29;;;;;;;10.43;5.50;;;;;;;;;;10354732;28;20440;-48
2022/11/08 18:47:29;;;;;;;12.90;5.80;;;;;;;;;;10365053;28;20092;-48
2022/11/08 18:52:29;;;;;;;16.95;4.97;;;;;;;;;;10358350;28;20091;-53
2022/11/08 18:57:30;;;;;;;12.00;5.50;;;;;;;;;;10364897;28;20500;-53
2022/11/08 19:02:30;;;;;;;15.18;5.38;;;;;;;;;;10366563;28;20463;-55
2022/11/08 19:07:30;;;;;;;11.57;5.73;;;;;;;;;;10362635;28;20041;-54
2022/11/08 19:12:30;;;;;;;17.57;5.03;;;;;;;;;;10364233;28;20034;-48
2022/11/08 19:17:34;;;;;;;11.15;5.88;;;;;;;;;;10364593;28;20030;-58
2022/11/08 19:22:34;;;;;;;11.07;5.72;;;;;;;;;;10360770;28;20033;-62
2022/11/08 19:27:34;;;;;;;12.63;5.67;;;;;;;;;;10364438;28;20026;-52
2022/11/08 19:32:34;;;;;;;13.70;6.20;;;;;;;;;;10364674;28;20050;-54
2022/11/08 19:37:35;;;;;;;12.10;5.18;;;;;;;;;;10366349;28;20030;-50
2022/11/08 19:42:35;;;;;;;10.63;5.80;;;;;;;;;;10360706;28;20108;-52
2022/11/08 19:47:35;;;;;;;14.37;6.00;;;;;;;;;;10367531;28;20080;-50
2022/11/08 19:52:35;;;;;;;8.88;5.50;;;;;;;;;;10366628;28;20030;-53
2022/11/08 19:57:36;;;;;;;12.98;6.15;;;;;;;;;;10364928;28;20034;-51
2022/11/08 20:02:36;;;;;;;11.50;6.25;;;;;;;;;;10365449;28;20053;-50
2022/11/08 20:07:36;;;;;;;16.63;6.43;;;;;;;;;;10366661;28;20026;-51
2022/11/08 20:12:37;;;;;;;14.27;6.13;;;;;;;;;;10353371;28;20030;-49
2022/11/08 20:17:37;;;;;;;12.70;5.75;;;;;;;;;;10361129;28;20025;-58
2022/11/08 20:22:37;;;;;;;16.40;6.50;;;;;;;;;;10351606;28;20030;-49
2022/11/08 20:27:38;;;;;;;17.37;6.70;;;;;;;;;;10362253;28;20037;-54
2022/11/08 20:32:38;;;;;;;17.83;6.30;;;;;;;;;;10360371;28;20610;-51
2022/11/08 20:37:38;;;;;;;18.77;6.35;;;;;;;;;;10362667;28;20040;-48
2022/11/08 20:42:39;;;;;;;15.32;7.15;;;;;;;;;;10356966;28;20030;-48
2022/11/08 20:47:39;;;;;;;12.10;7.07;;;;;;;;;;10364536;28;20050;-55
2022/11/08 20:52:39;;;;;;;15.77;6.93;;;;;;;;;;10364942;28;20482;-58
2022/11/08 20:57:39;;;;;;;14.70;7.65;;;;;;;;;;10371464;28;20434;-56
2022/11/08 21:02:40;;;;;;;22.42;7.65;;;;;;;;;;10372031;28;20132;-51
2022/11/08 21:07:40;;;;;;;17.70;7.35;;;;;;;;;;10366957;28;20029;-49
2022/11/08 21:12:40;;;;;;;21.25;7.70;;;;;;;;;;10371046;28;20026;-51
2022/11/08 21:17:40;;;;;;;14.93;7.20;;;;;;;;;;10372065;28;20113;-57
2022/11/08 21:22:41;;;;;;;12.80;7.65;;;;;;;;;;10371984;28;20029;-48
2022/11/08 21:27:41;;;;;;;17.02;7.22;;;;;;;;;;10371973;28;20072;-52
2022/11/08 21:32:41;;;;;;;17.58;7.57;;;;;;;;;;10371203;28;20079;-55
2022/11/08 21:37:41;;;;;;;15.73;8.10;;;;;;;;;;10371480;28;20021;-53
2022/11/08 21:42:42;;;;;;;14.30;6.88;;;;;;;;;;10370867;28;20029;-54
2022/11/08 21:47:42;;;;;;;14.65;7.68;;;;;;;;;;10364577;28;20034;-55
2022/11/08 21:52:42;;;;;;;11.98;6.78;;;;;;;;;;10371659;28;20362;-52
2022/11/08 21:57:42;;;;;;;13.48;7.85;;;;;;;;;;10370037;28;20588;-54
2022/11/08 22:02:43;;;;;;;17.40;8.30;;;;;;;;;;10367611;28;20069;-55
2022/11/08 22:07:44;;;;;;;13.27;7.82;;;;;;;;;;10368186;28;20827;-58
2022/11/08 22:12:44;;;;;;;14.82;7.82;;;;;;;;;;10367860;28;20100;-61
2022/11/08 22:17:44;;;;;;;15.25;7.75;;;;;;;;;;10367470;28;20402;-63
2022/11/08 22:22:44;;;;;;;12.52;7.53;;;;;;;;;;10366373;28;20022;-54
2022/11/08 22:27:45;;;;;;;17.15;7.72;;;;;;;;;;10363658;28;20095;-50
2022/11/08 22:32:45;;;;;;;13.80;8.15;;;;;;;;;;10367749;28;20136;-59
2022/11/08 22:37:46;;;;;;;15.57;7.18;;;;;;;;;;10367371;28;20029;-56
2022/11/08 22:42:46;;;;;;;12.57;7.35;;;;;;;;;;10358285;28;20071;-50
2022/11/08 22:47:46;;;;;;;9.93;7.10;;;;;;;;;;10368460;28;20026;-55
2022/11/08 22:52:48;;;;;;;15.18;7.65;;;;;;;;;;10365267;28;20091;-52
2022/11/08 22:57:48;;;;;;;13.02;7.60;;;;;;;;;;10357757;28;20025;-56
2022/11/08 23:02:49;;;;;;;15.85;7.40;;;;;;;;;;10363079;28;20034;-62
2022/11/08 23:07:49;;;;;;;14.88;8.13;;;;;;;;;;10358434;28;20160;-60
2022/11/08 23:18:08;;;;;;;11.25;6.65;;;;;;;;;;10360000;28;20413;-55
2022/11/08 23:33:46;;;;;;;;;;;;;;;;;;10366250;28;20132;-63
2022/11/08 23:38:47;;;;;;;8.40;5.47;;;;;;;;;;10363592;28;19918;-62
2022/11/08 23:49:06;;;;;;;12.20;5.93;;;;;;;;;;10366026;28;20033;-57
2022/11/08 23:54:06;;;;;;;12.73;6.38;;;;;;;;;;10366323;28;20473;-62
2022/11/08 23:59:07;;;;;;;14.17;6.50;;;;;;;;;;10360528;28;20026;-56
